createdAt,value
2023-05-07T00:01:15.305Z,13.60
2023-05-07T00:03:42.947Z,11.60
2023-05-07T00:06:09.949Z,11.40
2023-05-07T00:08:36.624Z,11.30
2023-05-07T00:11:03.383Z,13.70
2023-05-07T00:13:36.270Z,11.60
2023-05-07T00:16:03.771Z,11.30
2023-05-07T00:18:30.648Z,12.00
2023-05-07T00:20:57.359Z,13.60
2023-05-07T00:23:24.260Z,11.60
2023-05-07T00:25:50.960Z,12.30
2023-05-07T00:28:17.651Z,11.20
2023-05-07T00:30:44.399Z,11.60
2023-05-07T00:33:11.286Z,12.80
2023-05-07T00:35:38.005Z,13.40
2023-05-07T00:38:04.709Z,13.50
2023-05-07T00:40:31.450Z,13.30
2023-05-07T00:42:59.241Z,13.90
2023-05-07T00:45:29.666Z,12.90
2023-05-07T00:47:57.149Z,11.70
2023-05-07T00:50:24.264Z,12.80
2023-05-07T00:52:50.976Z,13.10
2023-05-07T00:55:17.921Z,12.90
2023-05-07T00:57:44.868Z,12.90
2023-05-07T01:00:13.882Z,13.10
2023-05-07T01:02:41.388Z,11.10
2023-05-07T01:05:18.420Z,10.50
2023-05-07T01:07:45.918Z,11.00
2023-05-07T01:10:12.996Z,10.30
2023-05-07T01:12:40.885Z,12.10
2023-05-07T01:15:08.890Z,12.20
2023-05-07T01:17:36.781Z,11.30
2023-05-07T01:20:06.032Z,12.70
2023-05-07T01:22:37.563Z,11.30
2023-05-07T01:25:05.173Z,13.00
2023-05-07T01:27:31.871Z,11.40
2023-05-07T01:29:58.606Z,13.10
2023-05-07T01:32:40.648Z,12.00
2023-05-07T01:35:09.053Z,11.10
2023-05-07T01:37:35.964Z,11.00
2023-05-07T01:40:03.105Z,9.90
2023-05-07T01:42:30.319Z,12.60
2023-05-07T01:44:59.394Z,10.10
2023-05-07T01:47:26.443Z,12.70
2023-05-07T01:49:53.347Z,12.40
2023-05-07T01:52:20.118Z,12.40
2023-05-07T01:54:46.804Z,12.50
2023-05-07T01:57:13.468Z,12.50
2023-05-07T01:59:40.155Z,12.20
2023-05-07T02:02:06.943Z,11.70
2023-05-07T02:04:33.714Z,12.20
2023-05-07T02:07:00.422Z,12.60
2023-05-07T02:09:27.085Z,9.70
2023-05-07T02:11:53.770Z,10.90
2023-05-07T02:14:21.592Z,12.10
2023-05-07T02:16:48.486Z,11.30
2023-05-07T02:19:15.264Z,10.30
2023-05-07T02:21:42.018Z,12.40
2023-05-07T02:24:08.763Z,12.10
2023-05-07T02:26:35.504Z,11.90
2023-05-07T02:29:02.150Z,12.00
2023-05-07T02:31:28.980Z,12.80
2023-05-07T02:33:55.678Z,12.20
2023-05-07T02:36:22.359Z,12.60
2023-05-07T02:38:49.008Z,12.20
2023-05-07T02:41:15.736Z,10.70
2023-05-07T02:43:42.380Z,11.90
2023-05-07T02:46:09.779Z,13.00
2023-05-07T02:48:36.557Z,9.10
2023-05-07T02:51:03.489Z,9.10
2023-05-07T02:53:30.496Z,9.70
2023-05-07T02:55:57.967Z,11.00
2023-05-07T02:58:24.671Z,9.00
2023-05-07T03:00:51.536Z,11.50
2023-05-07T03:03:18.293Z,10.30
2023-05-07T03:05:44.968Z,11.30
2023-05-07T03:08:11.683Z,11.50
2023-05-07T03:10:38.420Z,11.30
2023-05-07T03:13:05.365Z,11.40
2023-05-07T03:15:32.072Z,9.10
2023-05-07T03:17:59.055Z,9.20
2023-05-07T03:20:27.607Z,9.20
2023-05-07T03:22:54.369Z,10.70
2023-05-07T03:25:21.053Z,11.30
2023-05-07T03:27:47.701Z,11.30
2023-05-07T03:30:14.381Z,9.20
2023-05-07T03:32:41.257Z,11.30
2023-05-07T03:35:08.408Z,9.30
2023-05-07T03:37:35.088Z,11.50
2023-05-07T03:40:01.752Z,11.80
2023-05-07T03:42:29.456Z,11.40
2023-05-07T03:44:56.247Z,11.00
2023-05-07T03:47:24.240Z,10.50
2023-05-07T03:49:51.496Z,11.20
2023-05-07T03:52:23.357Z,8.70
2023-05-07T03:54:50.116Z,11.10
2023-05-07T03:57:16.843Z,9.20
2023-05-07T03:59:43.473Z,11.10
2023-05-07T04:02:10.251Z,8.60
2023-05-07T04:04:37.045Z,11.60
2023-05-07T04:07:04.165Z,11.30
2023-05-07T04:09:30.841Z,11.60
2023-05-07T04:11:57.534Z,10.80
2023-05-07T04:14:24.199Z,11.10
2023-05-07T04:16:50.917Z,11.20
2023-05-07T04:19:17.935Z,10.30
2023-05-07T04:21:44.588Z,11.00
2023-05-07T04:24:11.410Z,10.20
2023-05-07T04:26:38.037Z,8.90
2023-05-07T04:29:04.807Z,11.10
2023-05-07T04:31:31.682Z,11.30
2023-05-07T04:33:58.404Z,10.70
2023-05-07T04:36:28.645Z,8.90
2023-05-07T04:38:55.589Z,9.00
2023-05-07T04:41:22.234Z,11.10
2023-05-07T04:43:48.987Z,9.00
2023-05-07T04:46:15.693Z,10.90
2023-05-07T04:48:42.384Z,11.00
2023-05-07T04:51:09.036Z,10.70
2023-05-07T04:53:35.779Z,9.20
2023-05-07T04:56:02.428Z,9.20
2023-05-07T04:58:32.683Z,9.20
2023-05-07T05:01:00.067Z,12.20
2023-05-07T05:03:26.882Z,12.00
2023-05-07T05:05:54.022Z,9.30
2023-05-07T05:08:20.702Z,12.00
2023-05-07T05:10:49.632Z,12.20
2023-05-07T05:13:16.485Z,12.00
2023-05-07T05:15:43.495Z,12.20
2023-05-07T05:18:10.249Z,10.60
2023-05-07T05:20:37.047Z,12.20
2023-05-07T05:23:03.813Z,12.10
2023-05-07T05:25:30.600Z,12.50
2023-05-07T05:27:57.645Z,10.50
2023-05-07T05:30:24.397Z,13.00
2023-05-07T05:32:51.149Z,11.80
2023-05-07T05:35:17.897Z,13.30
2023-05-07T05:45:06.420Z,12.10
2023-05-07T05:47:33.207Z,12.40
2023-05-07T05:52:27.211Z,12.80
2023-05-07T05:54:54.592Z,12.90
2023-05-07T05:59:48.532Z,13.00
2023-05-07T06:04:43.844Z,13.30
2023-05-07T06:07:10.797Z,13.00
2023-05-07T06:09:37.483Z,13.40
2023-05-07T06:16:58.549Z,13.80
2023-05-07T06:19:27.540Z,13.80
2023-05-07T06:21:54.344Z,15.30
2023-05-07T06:24:21.158Z,14.00
2023-05-07T06:26:47.925Z,15.00
2023-05-07T06:29:14.832Z,16.20
2023-05-07T06:34:08.876Z,14.80
2023-05-07T06:36:36.121Z,16.70
2023-05-07T06:39:02.912Z,15.50
2023-05-07T06:41:29.667Z,16.70
2023-05-07T06:43:57.521Z,16.80
2023-05-07T06:46:24.406Z,17.50
2023-05-07T06:48:51.308Z,15.40
2023-05-07T06:51:18.208Z,15.50
2023-05-07T06:53:44.914Z,16.20
2023-05-07T06:56:11.682Z,17.70
2023-05-07T06:58:40.643Z,16.80
2023-05-07T07:01:07.405Z,15.90
2023-05-07T07:03:34.160Z,15.30
2023-05-07T07:06:02.902Z,16.10
2023-05-07T07:08:36.382Z,16.90
2023-05-07T07:11:03.173Z,17.80
2023-05-07T07:13:29.967Z,16.60
2023-05-07T07:15:59.261Z,17.30
2023-05-07T07:18:26.025Z,17.00
2023-05-07T07:20:54.902Z,16.40
2023-05-07T07:23:22.749Z,16.30
2023-05-07T07:25:49.565Z,17.90
2023-05-07T07:28:16.553Z,18.10
2023-05-07T07:30:43.593Z,17.60
2023-05-07T07:33:10.447Z,18.50
2023-05-07T07:35:37.156Z,17.20
2023-05-07T07:38:03.801Z,16.70
2023-05-07T07:40:30.972Z,17.60
2023-05-07T07:42:57.894Z,18.40
2023-05-07T07:45:24.896Z,17.70
2023-05-07T07:47:57.776Z,16.90
2023-05-07T07:50:44.191Z,16.80
2023-05-07T07:53:14.398Z,18.20
2023-05-07T07:55:41.554Z,18.20
2023-05-07T07:58:08.340Z,17.90
2023-05-07T08:00:34.947Z,17.10
2023-05-07T08:03:02.316Z,17.50
2023-05-07T08:05:29.096Z,18.40
2023-05-07T08:07:55.866Z,18.00
2023-05-07T08:10:56.630Z,18.30
2023-05-07T08:13:32.342Z,18.60
2023-05-07T08:15:59.048Z,18.50
2023-05-07T08:20:53.080Z,18.70
2023-05-07T08:23:22.990Z,19.60
2023-05-07T08:25:50.344Z,19.10
2023-05-07T08:28:17.004Z,19.30
2023-05-07T08:30:47.976Z,19.40
2023-05-07T08:33:14.782Z,19.50
2023-05-07T08:35:41.656Z,19.60
2023-05-07T08:38:08.333Z,19.90
2023-05-07T08:40:37.980Z,21.10
2023-05-07T08:45:31.910Z,19.70
2023-05-07T08:48:03.488Z,18.80
2023-05-07T08:50:30.302Z,20.00
2023-05-07T08:52:57.976Z,20.10
2023-05-07T08:55:25.393Z,20.90
2023-05-07T08:57:53.701Z,19.50
2023-05-07T09:00:20.487Z,20.80
2023-05-07T09:02:47.365Z,19.70
2023-05-07T09:12:37.313Z,20.50
2023-05-07T09:15:08.053Z,20.80
2023-05-07T09:17:38.233Z,20.70
2023-05-07T09:20:10.680Z,20.60
2023-05-07T09:25:06.854Z,21.20
2023-05-07T09:27:34.523Z,21.30
2023-05-07T09:30:04.173Z,21.40
2023-05-07T09:32:32.484Z,22.70
2023-05-07T09:34:59.521Z,21.50
2023-05-07T09:37:26.875Z,21.80
2023-05-07T09:39:53.674Z,22.80
2023-05-07T09:42:24.109Z,21.40
2023-05-07T09:44:51.770Z,21.60
2023-05-07T09:47:24.102Z,22.10
2023-05-07T09:49:51.137Z,21.40
2023-05-07T09:52:17.934Z,21.90
2023-05-07T09:54:46.093Z,22.40
2023-05-07T09:57:15.829Z,22.20
2023-05-07T09:59:43.686Z,21.20
2023-05-07T10:02:11.441Z,22.00
2023-05-07T10:04:38.223Z,22.40
2023-05-07T10:07:05.774Z,21.70
2023-05-07T10:09:33.023Z,22.70
2023-05-07T10:11:59.891Z,21.30
2023-05-07T10:14:28.960Z,20.60
2023-05-07T10:16:56.053Z,21.20
2023-05-07T10:19:23.083Z,21.50
2023-05-07T10:21:55.030Z,21.50
2023-05-07T10:24:27.095Z,22.30
2023-05-07T10:26:54.292Z,23.30
2023-05-07T10:29:24.902Z,21.70
2023-05-07T11:48:06.090Z,26.70
2023-05-07T11:50:32.666Z,26.90
2023-05-07T11:52:59.335Z,27.50
2023-05-07T11:55:27.007Z,26.60
2023-05-07T11:57:53.640Z,26.70
2023-05-07T12:00:20.298Z,27.30
2023-05-07T12:02:46.987Z,27.50
2023-05-07T12:05:13.890Z,27.70
2023-05-07T12:10:08.220Z,28.30
2023-05-07T12:12:43.109Z,27.10
2023-05-07T12:15:10.314Z,27.10
2023-05-07T12:17:37.329Z,27.30
2023-05-07T12:20:04.428Z,27.70
2023-05-07T12:22:31.491Z,27.90
2023-05-07T12:24:59.064Z,28.90
2023-05-07T12:27:26.674Z,28.90
2023-05-07T12:29:53.365Z,27.90
2023-05-07T12:32:21.447Z,27.10
2023-05-07T12:34:50.585Z,27.70
2023-05-07T12:37:17.369Z,28.60
2023-05-07T12:39:50.762Z,29.00
2023-05-07T12:47:11.674Z,30.00
2023-05-07T12:49:39.824Z,29.90
2023-05-07T12:52:06.896Z,30.00
2023-05-07T12:54:34.428Z,30.40
2023-05-07T12:57:01.755Z,29.60
2023-05-07T12:59:35.319Z,30.70
2023-05-07T13:02:02.399Z,30.30
2023-05-07T13:09:23.247Z,27.90
2023-05-07T13:11:49.912Z,28.10
2023-05-07T13:14:16.794Z,29.20
2023-05-07T13:16:43.719Z,28.80
2023-05-07T13:19:10.593Z,28.60
2023-05-07T13:21:37.209Z,29.00
2023-05-07T13:24:03.960Z,28.60
2023-05-07T13:26:31.225Z,29.10
2023-05-07T13:28:57.883Z,30.00
2023-05-07T13:38:45.784Z,31.40
2023-05-07T13:43:40.948Z,31.80
2023-05-07T13:46:07.770Z,30.40
2023-05-07T13:48:34.386Z,30.30
2023-05-07T13:51:05.113Z,30.70
2023-05-07T13:53:31.710Z,30.10
2023-05-07T13:55:58.323Z,30.90
2023-05-07T13:58:25.008Z,29.00
2023-05-07T14:00:51.761Z,28.20
2023-05-07T14:05:49.621Z,27.30
2023-05-07T14:08:19.622Z,28.00
2023-05-07T14:10:47.158Z,29.30
2023-05-07T14:13:13.887Z,28.60
2023-05-07T14:15:41.344Z,28.30
2023-05-07T14:18:08.098Z,29.50
2023-05-07T14:20:37.700Z,30.90
2023-05-07T14:23:04.521Z,29.40
2023-05-07T14:25:31.288Z,28.40
2023-05-07T14:27:57.946Z,28.00
2023-05-07T14:30:25.556Z,29.60
2023-05-07T14:32:52.328Z,29.70
2023-05-07T14:35:19.032Z,30.10
2023-05-07T14:37:45.804Z,29.90
2023-05-07T14:40:12.910Z,29.60
2023-05-07T14:42:39.822Z,30.10
2023-05-07T14:45:06.729Z,29.50
2023-05-07T14:47:33.419Z,28.30
2023-05-07T14:50:02.142Z,26.40
2023-05-07T14:52:28.915Z,26.80
2023-05-07T14:57:22.670Z,25.50
2023-05-07T14:59:49.359Z,25.80
2023-05-07T15:02:16.467Z,25.30
2023-05-07T15:04:46.885Z,24.90
2023-05-07T15:07:16.078Z,25.00
2023-05-07T15:09:43.283Z,26.00
2023-05-07T15:12:09.882Z,24.00
2023-05-07T15:14:36.654Z,25.60
2023-05-07T15:17:03.305Z,25.70
2023-05-07T15:19:30.549Z,25.40
2023-05-07T15:22:03.234Z,25.70
2023-05-07T15:24:30.253Z,25.90
2023-05-07T15:26:57.516Z,25.70
2023-05-07T15:29:24.157Z,25.90
2023-05-07T15:31:50.938Z,24.60
2023-05-07T15:34:17.597Z,24.60
2023-05-07T15:36:44.295Z,25.30
2023-05-07T15:39:11.687Z,24.90
2023-05-07T15:41:38.306Z,25.00
2023-05-07T15:44:05.093Z,24.80
2023-05-07T15:46:31.762Z,24.00
2023-05-07T15:51:25.567Z,23.60
2023-05-07T15:56:20.012Z,23.10
2023-05-07T15:58:46.743Z,22.70
2023-05-07T16:01:15.719Z,23.60
2023-05-07T16:03:42.792Z,22.60
2023-05-07T16:06:12.018Z,21.70
2023-05-07T16:08:40.288Z,23.20
2023-05-07T16:11:06.926Z,22.50
2023-05-07T16:16:00.695Z,22.20
2023-05-07T16:18:27.310Z,22.70
2023-05-07T16:20:54.585Z,22.20
2023-05-07T16:23:21.529Z,23.00
2023-05-07T16:25:49.084Z,22.50
2023-05-07T16:28:16.030Z,21.40
2023-05-07T16:30:42.671Z,21.90
2023-05-07T16:33:09.380Z,22.80
2023-05-07T16:57:46.320Z,21.20
2023-05-07T17:02:40.021Z,21.10
2023-05-07T17:10:01.686Z,20.90
2023-05-07T17:17:23.055Z,20.60
2023-05-07T17:22:16.703Z,20.60
2023-05-07T17:24:43.341Z,21.20
2023-05-07T17:27:09.953Z,21.60
2023-05-07T17:29:36.535Z,22.10
2023-05-07T17:32:03.307Z,21.10
2023-05-07T17:34:32.409Z,20.10
2023-05-07T17:36:59.001Z,21.50
2023-05-07T17:39:25.619Z,21.80
2023-05-07T17:41:52.275Z,19.90
2023-05-07T17:44:18.914Z,19.70
2023-05-07T17:46:45.515Z,19.30
2023-05-07T17:49:12.107Z,19.80
2023-05-07T17:51:52.654Z,19.50
2023-05-07T17:54:21.649Z,20.30
2023-05-07T17:56:48.276Z,18.60
2023-05-07T18:01:42.382Z,19.30
2023-05-07T18:04:09.376Z,18.50
2023-05-07T18:06:36.428Z,20.80
2023-05-07T18:09:03.106Z,19.10
2023-05-07T18:11:32.435Z,19.50
2023-05-07T18:14:00.716Z,18.40
2023-05-07T18:16:27.440Z,19.10
2023-05-07T18:18:54.571Z,20.10
2023-05-07T18:21:21.261Z,20.30
2023-05-07T18:23:48.276Z,19.70
2023-05-07T18:26:15.143Z,18.80
2023-05-07T18:28:41.738Z,18.30
2023-05-07T18:31:08.320Z,19.60
2023-05-07T18:33:34.935Z,20.20
2023-05-07T18:36:01.842Z,18.20
2023-05-07T18:38:28.559Z,18.60
2023-05-07T18:41:05.848Z,20.40
2023-05-07T18:43:34.083Z,18.40
2023-05-07T18:46:01.679Z,18.40
2023-05-07T18:48:29.071Z,20.00
2023-05-07T18:54:26.271Z,18.20
2023-05-07T18:56:54.318Z,18.10
2023-05-07T19:06:15.765Z,18.10
2023-05-07T19:08:42.401Z,17.60
2023-05-07T19:11:09.061Z,18.90
2023-05-07T19:13:36.026Z,18.20
2023-05-07T19:16:03.472Z,18.00
2023-05-07T19:18:31.918Z,17.90
2023-05-07T19:20:58.635Z,19.20
2023-05-07T19:23:25.549Z,18.80
2023-05-07T19:25:52.229Z,18.90
2023-05-07T19:28:19.170Z,19.10
2023-05-07T19:30:45.817Z,18.90
2023-05-07T19:33:12.640Z,18.50
2023-05-07T19:35:39.423Z,18.90
2023-05-07T19:38:06.211Z,18.60
2023-05-07T19:40:32.951Z,18.30
2023-05-07T19:42:59.666Z,18.70
2023-05-07T19:45:26.353Z,18.80
2023-05-07T19:47:53.085Z,18.50
2023-05-07T19:50:19.862Z,18.50
2023-05-07T19:52:46.950Z,17.00
2023-05-07T19:55:14.101Z,18.40
2023-05-07T19:57:40.997Z,18.00
2023-05-07T20:00:08.344Z,17.10
2023-05-07T20:02:35.084Z,16.80
2023-05-07T20:05:01.796Z,18.30
2023-05-07T20:07:28.449Z,17.70
2023-05-07T20:09:55.180Z,18.50
2023-05-07T20:14:49.131Z,18.40
2023-05-07T20:17:15.765Z,18.00
2023-05-07T20:19:42.457Z,17.50
2023-05-07T20:22:09.132Z,16.60
2023-05-07T20:24:39.345Z,15.90
2023-05-07T20:27:06.301Z,16.30
2023-05-07T20:29:33.558Z,15.80
2023-05-07T20:32:00.308Z,17.60
2023-05-07T20:34:27.007Z,17.40
2023-05-07T20:36:53.694Z,17.50
2023-05-07T20:41:47.385Z,15.90
2023-05-07T20:46:41.219Z,15.80
2023-05-07T20:51:35.397Z,15.80
2023-05-07T20:56:29.225Z,15.40
2023-05-07T20:58:55.872Z,17.30
2023-05-07T21:01:22.603Z,16.30
2023-05-07T21:03:50.243Z,17.10
2023-05-07T21:06:16.878Z,15.90
2023-05-07T21:08:43.527Z,17.10
2023-05-07T21:11:10.250Z,17.10
2023-05-07T21:13:36.952Z,16.50
2023-05-07T21:16:03.782Z,16.70
2023-05-07T21:20:57.622Z,15.30
2023-05-07T21:23:24.291Z,17.30
2023-05-07T21:25:51.841Z,14.80
2023-05-07T21:28:18.692Z,15.40
2023-05-07T21:30:45.384Z,14.60
2023-05-07T21:33:12.104Z,16.20
2023-05-07T21:35:38.795Z,16.50
2023-05-07T21:38:05.742Z,16.10
2023-05-07T21:40:32.466Z,14.60
2023-05-07T21:43:00.342Z,15.60
2023-05-07T21:45:27.300Z,16.20
2023-05-07T21:47:54.101Z,16.70
2023-05-07T21:50:21.288Z,14.30
2023-05-07T21:52:48.334Z,14.80
2023-05-07T21:55:15.021Z,14.40
2023-05-07T21:57:45.690Z,14.40
2023-05-07T22:00:17.790Z,14.50
2023-05-07T22:02:44.524Z,15.90
2023-05-07T22:05:11.381Z,16.50
2023-05-07T22:07:38.130Z,15.00
2023-05-07T22:10:04.994Z,16.00
2023-05-07T22:12:31.673Z,14.60
2023-05-07T22:14:58.427Z,13.90
2023-05-07T22:17:25.122Z,13.90
2023-05-07T22:19:52.060Z,14.00
2023-05-07T22:22:19.315Z,15.70
2023-05-07T22:24:46.456Z,14.20
2023-05-07T22:27:13.165Z,16.20
2023-05-07T22:29:39.807Z,14.90
2023-05-07T22:32:06.587Z,14.00
2023-05-07T22:34:33.348Z,15.80
2023-05-07T22:36:59.969Z,16.10
2023-05-07T22:39:26.660Z,16.10
2023-05-07T22:41:53.457Z,14.00
2023-05-07T22:44:20.158Z,16.00
2023-05-07T22:46:47.005Z,15.30
2023-05-07T22:49:13.714Z,15.50
2023-05-07T22:51:40.395Z,14.20
2023-05-07T22:54:08.481Z,15.80
2023-05-07T22:56:35.214Z,16.10
2023-05-07T22:59:01.826Z,15.30
2023-05-07T23:01:28.654Z,15.50
2023-05-07T23:03:55.351Z,14.10
2023-05-07T23:06:22.055Z,15.50
2023-05-07T23:08:48.760Z,16.40
2023-05-07T23:11:15.436Z,13.80
2023-05-07T23:13:42.091Z,16.10
2023-05-07T23:16:08.804Z,15.10
2023-05-07T23:18:35.788Z,13.40
2023-05-07T23:21:02.498Z,15.10
2023-05-07T23:23:33.666Z,13.30
2023-05-07T23:26:00.577Z,13.20
2023-05-07T23:28:27.252Z,15.40
2023-05-07T23:30:54.097Z,13.10
2023-05-07T23:33:20.784Z,13.50
2023-05-07T23:35:47.466Z,14.60
2023-05-07T23:38:14.226Z,12.50
2023-05-07T23:40:40.999Z,14.70
2023-05-07T23:43:07.806Z,14.80
2023-05-07T23:45:34.493Z,13.30
2023-05-07T23:48:01.206Z,13.40
2023-05-07T23:50:27.899Z,13.70
2023-05-07T23:52:54.573Z,12.50
2023-05-07T23:55:21.348Z,12.80
2023-05-07T23:57:48.083Z,12.60
